Time;durP1;ratioP1;P1;durP2;ratioP2;P2;SDS_P1;SDS_P2;PMS_P1;PMS_P2;Temp;Humidity;BMP_temperature;BMP_pressure;BME280_temperature;BME280_humidity;BME280_pressure;Samples;Min_cycle;Max_cycle;Signal;HPM_P1;HPM_P2
2023/09/04 00:00:43;;;;;;;1.33;1.23;;;;;;;;;;5049131;28;20261;-31
2023/09/04 00:03:12;;;;;;;1.60;1.50;;;;;;;;;;5049640;28;20296;-29
2023/09/04 00:05:40;;;;;;;1.50;1.40;;;;;;;;;;5045051;28;20272;-29
2023/09/04 00:08:07;;;;;;;1.93;1.70;;;;;;;;;;5048762;28;20300;-30
2023/09/04 00:10:34;;;;;;;3.87;2.00;;;;;;;;;;5049205;28;20235;-26
2023/09/04 00:13:01;;;;;;;2.27;1.60;;;;;;;;;;5045081;28;20481;-28
2023/09/04 00:15:28;;;;;;;2.30;1.60;;;;;;;;;;5048736;28;20208;-28
2023/09/04 00:17:55;;;;;;;1.53;1.43;;;;;;;;;;5048656;28;20213;-28
2023/09/04 00:20:24;;;;;;;2.27;1.60;;;;;;;;;;5041389;28;20223;-29
2023/09/04 00:22:51;;;;;;;1.40;1.23;;;;;;;;;;5043028;28;20228;-30
2023/09/04 00:25:18;;;;;;;2.17;1.20;;;;;;;;;;5049284;28;20733;-29
2023/09/04 00:27:45;;;;;;;2.60;1.50;;;;;;;;;;5041900;28;20203;-28
2023/09/04 00:30:12;;;;;;;1.20;1.10;;;;;;;;;;5045156;28;20228;-29
2023/09/04 00:32:40;;;;;;;1.67;1.53;;;;;;;;;;5049808;28;20296;-30
2023/09/04 00:35:08;;;;;;;1.50;1.40;;;;;;;;;;5043421;28;20214;-32
2023/09/04 00:37:36;;;;;;;1.83;1.63;;;;;;;;;;5051764;28;20212;-28
2023/09/04 00:40:05;;;;;;;2.50;2.20;;;;;;;;;;5052263;28;20217;-27
2023/09/04 00:42:33;;;;;;;2.87;2.13;;;;;;;;;;5049663;28;20693;-31
2023/09/04 00:45:00;;;;;;;1.77;1.53;;;;;;;;;;5047024;28;20199;-30
2023/09/04 00:47:28;;;;;;;1.30;1.20;;;;;;;;;;5052102;28;20203;-29
2023/09/04 00:49:56;;;;;;;1.20;1.20;;;;;;;;;;5046024;28;20239;-26
2023/09/04 00:52:23;;;;;;;1.67;1.57;;;;;;;;;;5043783;28;20199;-30
2023/09/04 00:54:52;;;;;;;3.70;1.53;;;;;;;;;;5054838;28;20205;-28
2023/09/04 00:57:20;;;;;;;2.20;1.60;;;;;;;;;;5055558;28;20204;-28
2023/09/04 00:59:47;;;;;;;7.43;1.60;;;;;;;;;;5045560;28;20254;-33
2023/09/04 01:02:15;;;;;;;2.20;1.33;;;;;;;;;;5048118;28;20204;-27
2023/09/04 01:04:41;;;;;;;2.10;1.13;;;;;;;;;;5042351;28;20217;-27
2023/09/04 01:07:08;;;;;;;3.00;1.63;;;;;;;;;;5042850;28;20259;-29
2023/09/04 01:09:36;;;;;;;2.47;1.40;;;;;;;;;;5051756;28;20230;-30
2023/09/04 01:12:06;;;;;;;1.70;1.60;;;;;;;;;;5052420;28;20210;-33
2023/09/04 01:14:35;;;;;;;1.30;1.20;;;;;;;;;;5048240;28;20249;-30
2023/09/04 01:17:03;;;;;;;1.80;1.70;;;;;;;;;;5051570;28;20294;-31
2023/09/04 01:19:30;;;;;;;1.80;1.70;;;;;;;;;;5045890;28;20233;-28
2023/09/04 01:21:59;;;;;;;3.50;1.93;;;;;;;;;;5035992;28;20224;-30
2023/09/04 01:24:26;;;;;;;2.33;1.53;;;;;;;;;;5050546;28;20230;-28
2023/09/04 01:26:55;;;;;;;1.50;1.40;;;;;;;;;;5051836;28;20194;-28
2023/09/04 01:29:26;;;;;;;1.80;1.53;;;;;;;;;;5039931;28;20235;-30
2023/09/04 01:32:03;;;;;;;2.80;1.73;;;;;;;;;;5051932;28;20205;-29
2023/09/04 01:34:31;;;;;;;4.27;1.27;;;;;;;;;;5047859;28;20203;-27
2023/09/04 01:37:00;;;;;;;3.03;1.60;;;;;;;;;;5040174;28;20291;-30
2023/09/04 01:39:28;;;;;;;2.00;1.53;;;;;;;;;;5049622;28;20216;-29
2023/09/04 01:41:55;;;;;;;3.83;1.50;;;;;;;;;;5052007;28;20218;-29
2023/09/04 01:44:22;;;;;;;1.67;1.27;;;;;;;;;;5048988;28;20294;-30
2023/09/04 01:46:49;;;;;;;3.47;1.60;;;;;;;;;;5041773;28;20208;-27
2023/09/04 01:49:16;;;;;;;1.70;1.60;;;;;;;;;;5044246;28;20227;-31
2023/09/04 01:51:43;;;;;;;1.60;1.50;;;;;;;;;;5049590;28;20567;-28
2023/09/04 01:54:12;;;;;;;2.20;1.57;;;;;;;;;;5051946;28;20205;-29
2023/09/04 01:56:39;;;;;;;1.63;1.53;;;;;;;;;;5052062;28;20222;-31
2023/09/04 01:59:07;;;;;;;4.47;1.80;;;;;;;;;;5040759;28;20247;-27
2023/09/04 02:01:35;;;;;;;3.37;2.20;;;;;;;;;;5048018;28;20298;-28
2023/09/04 02:04:02;;;;;;;1.83;1.73;;;;;;;;;;5051613;28;20202;-30
2023/09/04 02:06:30;;;;;;;1.77;1.40;;;;;;;;;;5046734;28;20214;-28
2023/09/04 02:08:57;;;;;;;2.13;1.70;;;;;;;;;;5045417;28;20230;-30
2023/09/04 02:11:26;;;;;;;1.77;1.40;;;;;;;;;;5051917;28;20455;-31
2023/09/04 02:13:53;;;;;;;4.07;1.50;;;;;;;;;;5049122;28;20301;-30
2023/09/04 02:16:20;;;;;;;1.73;1.63;;;;;;;;;;5046971;28;20202;-29
2023/09/04 02:18:47;;;;;;;2.37;1.80;;;;;;;;;;5050587;28;20230;-30
2023/09/04 02:21:14;;;;;;;3.93;1.60;;;;;;;;;;5036444;28;20219;-28
2023/09/04 02:23:42;;;;;;;2.03;1.90;;;;;;;;;;5047949;28;20205;-30
2023/09/04 02:26:09;;;;;;;3.80;1.53;;;;;;;;;;5051737;28;20289;-28
2023/09/04 02:28:38;;;;;;;4.63;2.03;;;;;;;;;;5046287;28;20203;-30
2023/09/04 02:31:08;;;;;;;1.90;1.80;;;;;;;;;;5046946;28;20229;-28
2023/09/04 02:33:35;;;;;;;2.30;2.10;;;;;;;;;;5051903;28;20208;-29
2023/09/04 02:36:02;;;;;;;2.17;1.97;;;;;;;;;;5041388;28;20207;-29
2023/09/04 02:38:30;;;;;;;2.10;1.90;;;;;;;;;;5041588;28;20218;-29
2023/09/04 02:40:57;;;;;;;1.60;1.50;;;;;;;;;;5051111;28;20195;-29
2023/09/04 02:43:24;;;;;;;2.70;1.70;;;;;;;;;;5051098;28;20211;-32
2023/09/04 02:45:53;;;;;;;1.90;1.80;;;;;;;;;;5039767;28;20210;-30
2023/09/04 02:48:20;;;;;;;2.27;2.03;;;;;;;;;;5048105;28;20205;-32
2023/09/04 02:50:47;;;;;;;2.40;2.17;;;;;;;;;;5035836;28;20230;-29
2023/09/04 02:53:14;;;;;;;2.17;1.97;;;;;;;;;;5047041;28;20199;-30
2023/09/04 02:55:41;;;;;;;2.17;2.07;;;;;;;;;;5049587;28;20307;-30
2023/09/04 02:58:09;;;;;;;2.10;2.00;;;;;;;;;;5028601;28;20630;-28
2023/09/04 03:00:36;;;;;;;2.10;1.60;;;;;;;;;;5038418;28;20226;-31
2023/09/04 03:03:06;;;;;;;1.97;1.77;;;;;;;;;;5050389;28;20275;-27
2023/09/04 03:05:33;;;;;;;1.70;1.60;;;;;;;;;;5044741;28;20199;-32
2023/09/04 03:08:00;;;;;;;2.30;2.10;;;;;;;;;;5042050;28;20199;-31
2023/09/04 03:10:27;;;;;;;2.53;1.80;;;;;;;;;;5049596;28;20223;-32
2023/09/04 03:12:54;;;;;;;1.90;1.80;;;;;;;;;;5048696;28;20215;-31
2023/09/04 03:15:21;;;;;;;1.70;1.60;;;;;;;;;;5044131;28;20233;-27
2023/09/04 03:17:48;;;;;;;1.90;1.80;;;;;;;;;;5049826;28;20197;-31
2023/09/04 03:20:19;;;;;;;2.77;1.93;;;;;;;;;;5041021;28;20298;-29
2023/09/04 03:22:47;;;;;;;1.80;1.70;;;;;;;;;;5035698;28;20206;-30
2023/09/04 03:25:14;;;;;;;2.30;2.10;;;;;;;;;;5050224;28;20194;-29
2023/09/04 03:27:41;;;;;;;3.03;1.87;;;;;;;;;;5049358;28;20565;-29
2023/09/04 03:30:09;;;;;;;1.90;1.63;;;;;;;;;;5044466;28;20300;-30
2023/09/04 03:32:36;;;;;;;5.63;1.90;;;;;;;;;;5043656;28;20595;-30
2023/09/04 03:35:04;;;;;;;3.37;2.00;;;;;;;;;;5047340;28;20213;-29
2023/09/04 03:37:34;;;;;;;2.30;2.10;;;;;;;;;;5042150;28;20219;-30
2023/09/04 03:40:16;;;;;;;2.10;2.00;;;;;;;;;;5050128;28;20321;-28
2023/09/04 03:42:43;;;;;;;3.10;2.00;;;;;;;;;;5046508;28;20210;-27
2023/09/04 03:45:11;;;;;;;1.90;1.80;;;;;;;;;;5046780;28;20204;-29
2023/09/04 03:47:38;;;;;;;2.17;1.90;;;;;;;;;;5049716;28;20199;-27
2023/09/04 03:50:05;;;;;;;2.77;1.90;;;;;;;;;;5039904;28;20230;-26
2023/09/04 03:52:34;;;;;;;2.70;2.00;;;;;;;;;;5033439;28;20237;-31
2023/09/04 03:55:01;;;;;;;1.83;1.73;;;;;;;;;;5050076;28;20202;-30
2023/09/04 03:57:28;;;;;;;2.00;1.90;;;;;;;;;;5050373;28;20221;-31
2023/09/04 03:59:57;;;;;;;2.23;2.10;;;;;;;;;;5034909;28;20306;-28
2023/09/04 04:02:24;;;;;;;1.97;1.77;;;;;;;;;;5048014;28;20207;-30
2023/09/04 04:04:52;;;;;;;2.37;1.97;;;;;;;;;;5044275;28;20203;-32
2023/09/04 04:07:20;;;;;;;2.37;2.00;;;;;;;;;;5049635;28;20212;-31
2023/09/04 04:22:42;;;;;;;1.87;1.70;;;;;;;;;;5005281;28;20216;-29
2023/09/04 04:25:10;;;;;;;2.00;1.90;;;;;;;;;;5012817;28;20205;-31
2023/09/04 04:27:38;;;;;;;2.03;1.83;;;;;;;;;;5008182;28;20210;-32
2023/09/04 04:30:06;;;;;;;2.17;1.97;;;;;;;;;;5005145;28;20235;-31
2023/09/04 04:32:33;;;;;;;2.57;1.83;;;;;;;;;;5009792;28;20283;-31
2023/09/04 04:35:00;;;;;;;2.63;1.73;;;;;;;;;;5005249;28;20229;-33
2023/09/04 04:37:28;;;;;;;1.80;1.70;;;;;;;;;;5007930;28;20271;-30
2023/09/04 04:39:56;;;;;;;2.43;2.23;;;;;;;;;;5007232;28;20231;-33
2023/09/04 04:42:26;;;;;;;2.27;2.03;;;;;;;;;;5004731;28;20209;-30
2023/09/04 04:44:53;;;;;;;2.43;2.20;;;;;;;;;;5006606;28;20216;-31
2023/09/04 04:47:20;;;;;;;4.13;2.20;;;;;;;;;;5009919;28;20200;-41
2023/09/04 04:49:47;;;;;;;2.30;2.10;;;;;;;;;;4996181;28;20248;-31
2023/09/04 04:52:14;;;;;;;2.27;2.07;;;;;;;;;;5016798;28;20214;-32
2023/09/04 04:54:41;;;;;;;4.00;2.13;;;;;;;;;;5024929;28;20282;-33
2023/09/04 04:57:10;;;;;;;2.10;1.83;;;;;;;;;;5021581;28;20207;-32
2023/09/04 04:59:37;;;;;;;2.30;2.10;;;;;;;;;;4999854;28;20676;-30
2023/09/04 05:02:04;;;;;;;5.33;2.33;;;;;;;;;;5014495;28;20203;-32
2023/09/04 05:10:39;;;;;;;2.00;1.80;;;;;;;;;;5035507;28;20271;-31
2023/09/04 05:13:07;;;;;;;2.30;2.10;;;;;;;;;;5018058;28;20314;-32
2023/09/04 05:15:34;;;;;;;3.83;2.33;;;;;;;;;;5019125;28;20230;-30
2023/09/04 05:18:01;;;;;;;2.40;2.20;;;;;;;;;;5005763;28;20200;-30
2023/09/04 05:20:28;;;;;;;2.57;2.23;;;;;;;;;;5003313;28;20539;-31
2023/09/04 05:22:56;;;;;;;1.80;1.70;;;;;;;;;;5017751;28;20199;-33
2023/09/04 05:25:23;;;;;;;3.47;2.17;;;;;;;;;;5020499;28;20207;-30
2023/09/04 05:27:51;;;;;;;3.80;2.10;;;;;;;;;;5019482;28;20576;-30
2023/09/04 05:30:20;;;;;;;2.30;2.10;;;;;;;;;;5015888;28;20638;-29
2023/09/04 05:32:47;;;;;;;3.67;1.90;;;;;;;;;;5020194;28;20222;-32
2023/09/04 05:35:14;;;;;;;2.23;2.00;;;;;;;;;;5000722;28;20232;-32
2023/09/04 05:38:18;;;;;;;2.40;2.17;;;;;;;;;;5011277;28;20258;-32
2023/09/04 05:40:45;;;;;;;2.57;2.23;;;;;;;;;;5023225;28;20225;-30
2023/09/04 05:43:13;;;;;;;3.20;2.90;;;;;;;;;;4995799;28;20565;-32
2023/09/04 05:45:41;;;;;;;2.80;2.50;;;;;;;;;;5011689;28;20287;-30
2023/09/04 05:48:08;;;;;;;4.10;2.50;;;;;;;;;;5024375;28;20227;-30
2023/09/04 05:50:35;;;;;;;4.23;2.47;;;;;;;;;;5008393;28;20229;-32
2023/09/04 05:53:03;;;;;;;8.80;3.10;;;;;;;;;;5015087;28;20211;-31
2023/09/04 05:55:31;;;;;;;3.23;2.93;;;;;;;;;;5028882;28;20200;-29
2023/09/04 05:57:58;;;;;;;4.30;2.67;;;;;;;;;;5004677;28;20259;-32
2023/09/04 06:00:27;;;;;;;2.70;2.50;;;;;;;;;;5005951;28;20227;-33
2023/09/04 06:03:03;;;;;;;3.07;2.60;;;;;;;;;;5007436;28;20643;-32
2023/09/04 06:05:32;;;;;;;3.50;2.87;;;;;;;;;;4997834;28;20777;-29
2023/09/04 06:08:05;;;;;;;4.23;2.73;;;;;;;;;;4999867;28;20211;-32
2023/09/04 06:10:33;;;;;;;2.53;2.30;;;;;;;;;;5018598;28;20234;-32
2023/09/04 06:13:00;;;;;;;3.60;3.00;;;;;;;;;;5000658;28;20209;-32
2023/09/04 06:15:27;;;;;;;3.07;2.60;;;;;;;;;;5005536;28;20705;-30
2023/09/04 06:17:54;;;;;;;3.20;2.77;;;;;;;;;;5012448;28;20226;-32
2023/09/04 06:20:23;;;;;;;2.70;2.50;;;;;;;;;;4992004;28;20654;-33
2023/09/04 06:22:50;;;;;;;3.10;2.80;;;;;;;;;;5002416;28;20211;-29
2023/09/04 06:25:17;;;;;;;5.47;3.00;;;;;;;;;;5023523;28;20212;-33
2023/09/04 06:27:44;;;;;;;3.27;2.87;;;;;;;;;;5020237;28;20219;-33
2023/09/04 06:30:12;;;;;;;4.00;3.60;;;;;;;;;;5009624;28;20234;-32
2023/09/04 06:32:39;;;;;;;4.13;3.17;;;;;;;;;;5020598;28;20203;-32
2023/09/04 06:35:06;;;;;;;3.30;3.10;;;;;;;;;;5010744;28;20645;-31
2023/09/04 06:37:35;;;;;;;3.93;3.40;;;;;;;;;;5011888;28;20201;-32
2023/09/04 06:40:03;;;;;;;13.47;3.43;;;;;;;;;;5020235;28;20229;-31
2023/09/04 06:42:30;;;;;;;4.80;3.87;;;;;;;;;;5004641;28;20201;-30
2023/09/04 06:44:57;;;;;;;3.87;2.70;;;;;;;;;;5003965;28;20207;-29
2023/09/04 06:47:24;;;;;;;4.37;2.73;;;;;;;;;;4994897;28;20211;-30
2023/09/04 06:49:51;;;;;;;3.57;3.27;;;;;;;;;;5001812;28;20223;-34
2023/09/04 06:52:19;;;;;;;5.23;3.43;;;;;;;;;;4994844;28;20221;-30
2023/09/04 06:54:47;;;;;;;5.93;3.90;;;;;;;;;;5001286;28;20206;-31
2023/09/04 06:57:15;;;;;;;3.20;2.90;;;;;;;;;;5001469;28;20204;-31
2023/09/04 06:59:42;;;;;;;4.27;3.87;;;;;;;;;;5007348;28;20219;-32
2023/09/04 07:02:09;;;;;;;5.13;3.60;;;;;;;;;;4996564;28;20201;-32
2023/09/04 07:04:36;;;;;;;3.73;3.00;;;;;;;;;;4991613;28;20233;-33
2023/09/04 07:07:03;;;;;;;3.20;2.90;;;;;;;;;;4994926;28;20290;-29
2023/09/04 07:09:31;;;;;;;8.03;3.50;;;;;;;;;;5006521;28;20230;-31
2023/09/04 07:11:59;;;;;;;4.43;3.10;;;;;;;;;;5032757;28;20216;-32
2023/09/04 07:14:26;;;;;;;4.40;3.20;;;;;;;;;;5010549;28;20316;-31
2023/09/04 07:16:54;;;;;;;3.53;3.20;;;;;;;;;;5005824;28;20205;-30
2023/09/04 07:19:21;;;;;;;3.80;3.40;;;;;;;;;;5001611;28;20315;-31
2023/09/04 07:21:48;;;;;;;6.93;3.67;;;;;;;;;;5004118;28;20866;-33
2023/09/04 07:24:15;;;;;;;3.10;2.90;;;;;;;;;;5020514;28;20214;-32
2023/09/04 07:26:42;;;;;;;3.13;2.83;;;;;;;;;;5013841;28;20201;-30
2023/09/04 07:29:11;;;;;;;3.33;2.97;;;;;;;;;;5008494;28;20225;-31
2023/09/04 07:31:38;;;;;;;3.83;3.40;;;;;;;;;;5012326;28;20226;-31
2023/09/04 07:34:05;;;;;;;3.47;3.17;;;;;;;;;;5025277;28;20295;-30
2023/09/04 07:36:32;;;;;;;3.17;2.90;;;;;;;;;;5006127;28;20213;-31
2023/09/04 07:38:59;;;;;;;2.80;2.60;;;;;;;;;;5012051;28;20316;-34
2023/09/04 07:41:26;;;;;;;3.47;3.17;;;;;;;;;;5018190;28;20207;-33
2023/09/04 07:43:53;;;;;;;2.90;2.63;;;;;;;;;;5013259;28;20675;-29
2023/09/04 07:46:22;;;;;;;6.27;5.77;;;;;;;;;;5021683;28;20220;-29
2023/09/04 07:48:50;;;;;;;3.20;3.00;;;;;;;;;;5029539;28;20616;-29
2023/09/04 07:51:18;;;;;;;2.80;2.60;;;;;;;;;;5012072;28;20228;-31
2023/09/04 07:53:45;;;;;;;3.33;3.03;;;;;;;;;;5028926;28;20642;-30
2023/09/04 07:56:13;;;;;;;3.23;2.90;;;;;;;;;;5019451;28;20204;-31
2023/09/04 07:58:40;;;;;;;3.30;3.00;;;;;;;;;;5011586;28;20221;-30
2023/09/04 08:01:11;;;;;;;3.27;2.60;;;;;;;;;;5011854;28;20208;-33
2023/09/04 08:03:40;;;;;;;3.30;2.73;;;;;;;;;;5020126;28;20526;-33
2023/09/04 08:06:07;;;;;;;3.47;2.97;;;;;;;;;;5004726;28;20203;-33
2023/09/04 08:08:34;;;;;;;3.97;2.60;;;;;;;;;;5010647;28;20216;-29
2023/09/04 08:11:01;;;;;;;3.63;2.70;;;;;;;;;;5035631;28;20276;-32
2023/09/04 08:13:28;;;;;;;2.60;2.40;;;;;;;;;;5024984;28;20291;-30
2023/09/04 08:15:56;;;;;;;3.20;2.83;;;;;;;;;;5019627;28;20212;-31
2023/09/04 08:18:23;;;;;;;2.70;2.50;;;;;;;;;;5018988;28;20197;-33
2023/09/04 08:20:51;;;;;;;3.33;3.03;;;;;;;;;;5016659;28;20412;-32
2023/09/04 08:23:18;;;;;;;2.47;2.27;;;;;;;;;;5019363;28;20679;-32
2023/09/04 08:25:45;;;;;;;3.73;2.80;;;;;;;;;;5023137;28;20213;-33
2023/09/04 08:28:13;;;;;;;4.03;2.57;;;;;;;;;;5015437;28;20212;-31
2023/09/04 08:30:40;;;;;;;3.07;2.87;;;;;;;;;;5006267;28;20229;-29
2023/09/04 08:33:07;;;;;;;2.80;2.60;;;;;;;;;;5022633;28;20315;-33
2023/09/04 08:35:34;;;;;;;2.90;2.70;;;;;;;;;;5002444;28;20210;-31
2023/09/04 08:38:05;;;;;;;2.33;2.17;;;;;;;;;;5009507;28;20292;-30
2023/09/04 08:40:33;;;;;;;3.87;2.73;;;;;;;;;;5015572;28;20233;-29
2023/09/04 08:43:00;;;;;;;2.70;2.50;;;;;;;;;;5015703;28;20213;-32
2023/09/04 08:45:27;;;;;;;2.80;2.60;;;;;;;;;;5005523;28;20220;-32
2023/09/04 08:47:55;;;;;;;2.60;2.40;;;;;;;;;;5020697;28;20240;-32
2023/09/04 08:50:23;;;;;;;3.20;2.90;;;;;;;;;;5011595;28;20265;-32
2023/09/04 08:52:51;;;;;;;3.07;2.70;;;;;;;;;;5005619;28;20223;-33
2023/09/04 08:55:20;;;;;;;3.20;2.90;;;;;;;;;;5021261;28;20210;-32
2023/09/04 08:57:47;;;;;;;2.83;2.63;;;;;;;;;;5010260;28;20214;-30
2023/09/04 09:00:15;;;;;;;3.23;2.67;;;;;;;;;;5014251;28;20231;-30
2023/09/04 09:02:43;;;;;;;3.00;2.80;;;;;;;;;;5014951;28;20195;-33
2023/09/04 09:05:11;;;;;;;2.95;2.70;;;;;;;;;;5007576;28;20226;-31
2023/09/04 09:07:39;;;;;;;2.80;2.55;;;;;;;;;;5010437;28;20293;-32
2023/09/04 09:10:07;;;;;;;2.75;2.58;;;;;;;;;;5019449;28;20223;-34
2023/09/04 09:12:36;;;;;;;4.32;2.80;;;;;;;;;;5015161;28;20288;-31
2023/09/04 09:15:03;;;;;;;2.72;2.42;;;;;;;;;;5008011;28;20208;-31
2023/09/04 09:17:30;;;;;;;2.95;2.70;;;;;;;;;;5022337;28;20240;-32
2023/09/04 09:19:57;;;;;;;3.60;2.75;;;;;;;;;;5006261;28;20227;-32
2023/09/04 09:22:25;;;;;;;2.38;2.20;;;;;;;;;;5014465;28;20204;-33
2023/09/04 09:24:53;;;;;;;2.63;2.42;;;;;;;;;;5026239;28;20230;-34
2023/09/04 09:27:20;;;;;;;2.45;2.25;;;;;;;;;;5032006;28;20207;-33
2023/09/04 09:29:49;;;;;;;4.90;2.50;;;;;;;;;;5011512;28;20230;-33
2023/09/04 09:32:17;;;;;;;2.70;2.50;;;;;;;;;;5022352;28;20245;-30
2023/09/04 09:34:49;;;;;;;2.92;2.65;;;;;;;;;;5008603;28;20203;-34
2023/09/04 09:37:16;;;;;;;2.58;2.38;;;;;;;;;;5006018;28;20208;-31
2023/09/04 09:39:43;;;;;;;3.42;2.60;;;;;;;;;;5029613;28;20282;-33
2023/09/04 09:42:12;;;;;;;2.75;2.53;;;;;;;;;;5013914;28;20670;-35
2023/09/04 09:44:39;;;;;;;2.63;2.42;;;;;;;;;;5005120;28;20206;-35
2023/09/04 09:47:09;;;;;;;3.03;2.72;;;;;;;;;;5029251;28;20190;-32
2023/09/04 09:49:37;;;;;;;3.15;2.95;;;;;;;;;;5014178;28;20236;-33
2023/09/04 09:52:07;;;;;;;2.78;2.58;;;;;;;;;;5006767;28;20222;-33
2023/09/04 09:54:35;;;;;;;3.65;2.53;;;;;;;;;;5024674;28;20226;-33
2023/09/04 09:57:07;;;;;;;4.80;2.72;;;;;;;;;;5029772;28;20213;-34
2023/09/04 09:59:35;;;;;;;3.00;2.80;;;;;;;;;;5008177;28;20592;-33
2023/09/04 10:02:03;;;;;;;2.40;2.30;;;;;;;;;;5017592;28;20203;-33
2023/09/04 10:04:33;;;;;;;5.78;2.50;;;;;;;;;;5001438;28;20214;-32
2023/09/04 10:07:01;;;;;;;2.70;2.50;;;;;;;;;;5006952;28;20213;-31
2023/09/04 10:09:29;;;;;;;2.88;2.60;;;;;;;;;;5024021;28;20232;-34
2023/09/04 10:12:01;;;;;;;2.97;2.72;;;;;;;;;;5031079;28;20254;-30
2023/09/04 10:14:31;;;;;;;2.70;2.50;;;;;;;;;;5016818;28;20222;-31
2023/09/04 10:17:00;;;;;;;2.90;2.65;;;;;;;;;;5003008;28;20219;-31
2023/09/04 10:19:30;;;;;;;3.85;2.33;;;;;;;;;;5017071;28;20234;-31
2023/09/04 10:22:01;;;;;;;2.60;2.40;;;;;;;;;;5020336;28;20303;-31
2023/09/04 10:27:15;;;;;;;2.90;2.70;;;;;;;;;;5259434;22;20304;-41
2023/09/04 10:29:51;;;;;;;2.25;2.10;;;;;;;;;;5013106;28;20280;-44
2023/09/04 10:32:25;;;;;;;2.50;2.22;;;;;;;;;;5030216;28;20217;-44
2023/09/04 10:35:11;;;;;;;2.20;2.10;;;;;;;;;;5023988;28;20214;-42
2023/09/04 10:37:43;;;;;;;2.50;2.30;;;;;;;;;;5002098;28;20206;-43
2023/09/04 10:40:13;;;;;;;2.45;2.25;;;;;;;;;;5017076;28;20215;-44
2023/09/04 10:42:49;;;;;;;3.35;1.95;;;;;;;;;;5011381;28;20294;-43
2023/09/04 10:45:21;;;;;;;2.42;2.20;;;;;;;;;;5023746;28;20297;-43
2023/09/04 10:47:55;;;;;;;2.88;2.67;;;;;;;;;;5021070;28;20218;-45
2023/09/04 10:50:41;;;;;;;2.03;1.92;;;;;;;;;;5006371;28;20688;-40
2023/09/04 10:53:33;;;;;;;1.83;1.73;;;;;;;;;;5009788;28;20226;-43
2023/09/04 10:56:20;;;;;;;2.28;2.17;;;;;;;;;;5023279;28;20207;-41
2023/09/04 10:59:13;;;;;;;2.50;2.30;;;;;;;;;;5030940;28;20233;-40
2023/09/04 11:01:52;;;;;;;2.42;2.25;;;;;;;;;;5006319;28;20586;-38
2023/09/04 11:04:35;;;;;;;2.40;2.03;;;;;;;;;;5013895;28;20196;-44
2023/09/04 11:07:28;;;;;;;2.33;2.08;;;;;;;;;;5011291;28;20200;-44
2023/09/04 11:10:11;;;;;;;3.43;2.67;;;;;;;;;;4967779;28;20221;-39
2023/09/04 11:12:41;;;;;;;2.63;2.30;;;;;;;;;;5013987;28;20318;-43
2023/09/04 11:18:01;;;;;;;3.45;2.08;;;;;;;;;;5004082;28;20202;-39
2023/09/04 11:21:14;;;;;;;2.10;1.98;;;;;;;;;;5008232;28;20234;-42
2023/09/04 11:24:00;;;;;;;2.15;1.95;;;;;;;;;;5009776;28;20206;-44
2023/09/04 11:26:39;;;;;;;2.47;2.28;;;;;;;;;;5002041;28;20211;-43
2023/09/04 11:29:30;;;;;;;3.10;2.10;;;;;;;;;;4994297;28;20255;-43
2023/09/04 11:32:01;;;;;;;2.08;1.98;;;;;;;;;;4996422;28;20218;-40
2023/09/04 11:34:32;;;;;;;2.58;2.28;;;;;;;;;;4995468;28;20246;-44
2023/09/04 11:37:05;;;;;;;2.05;1.90;;;;;;;;;;5007727;28;20230;-46
2023/09/04 11:39:35;;;;;;;3.65;2.00;;;;;;;;;;5382710;22;20243;-45
2023/09/04 11:42:14;;;;;;;2.20;2.00;;;;;;;;;;5017305;28;20203;-44
2023/09/04 11:44:48;;;;;;;2.13;2.03;;;;;;;;;;4997752;28;20207;-41
2023/09/04 11:47:24;;;;;;;2.38;1.88;;;;;;;;;;5003595;28;20214;-43
2023/09/04 11:49:53;;;;;;;2.50;2.20;;;;;;;;;;4996194;28;20259;-43
2023/09/04 11:52:30;;;;;;;2.20;2.00;;;;;;;;;;4993387;28;20278;-40
2023/09/04 11:55:06;;;;;;;2.30;2.10;;;;;;;;;;5007696;28;20326;-42
2023/09/04 11:57:45;;;;;;;1.90;1.70;;;;;;;;;;5006898;28;20237;-44
2023/09/04 12:00:19;;;;;;;2.92;2.20;;;;;;;;;;4997807;28;20282;-42
2023/09/04 12:02:55;;;;;;;2.30;2.20;;;;;;;;;;4983902;28;20262;-43
2023/09/04 12:05:28;;;;;;;2.30;2.10;;;;;;;;;;4980097;28;20203;-43
2023/09/04 12:08:06;;;;;;;2.45;2.25;;;;;;;;;;5001013;28;20273;-41
2023/09/04 12:10:38;;;;;;;3.15;2.30;;;;;;;;;;5027168;23;20266;-43
2023/09/04 12:13:14;;;;;;;2.10;1.90;;;;;;;;;;5007399;28;20223;-40
2023/09/04 12:15:46;;;;;;;2.50;2.22;;;;;;;;;;5009456;28;20210;-42
2023/09/04 12:18:16;;;;;;;3.95;2.50;;;;;;;;;;5031972;28;20261;-42
2023/09/04 12:20:55;;;;;;;7.82;2.72;;;;;;;;;;5015373;28;20224;-43
2023/09/04 12:23:39;;;;;;;2.63;2.20;;;;;;;;;;5012869;28;20200;-43
2023/09/04 12:26:16;;;;;;;4.22;2.45;;;;;;;;;;5012730;28;20203;-44
2023/09/04 12:28:49;;;;;;;3.33;2.42;;;;;;;;;;5007166;28;20298;-43
2023/09/04 12:31:26;;;;;;;2.42;2.22;;;;;;;;;;5013194;28;20205;-45
2023/09/04 12:33:56;;;;;;;2.65;2.40;;;;;;;;;;5029837;28;20234;-40
2023/09/04 12:36:28;;;;;;;2.45;2.22;;;;;;;;;;5000396;28;20211;-44
2023/09/04 12:39:04;;;;;;;3.38;2.17;;;;;;;;;;5024734;28;20223;-42
2023/09/04 12:41:48;;;;;;;2.78;2.55;;;;;;;;;;5017684;28;20304;-44
2023/09/04 12:44:18;;;;;;;2.75;2.55;;;;;;;;;;5015004;28;20228;-43
2023/09/04 12:46:51;;;;;;;2.60;2.40;;;;;;;;;;5018534;28;20208;-44
2023/09/04 12:49:33;;;;;;;2.80;2.22;;;;;;;;;;5021966;22;20318;-42
2023/09/04 12:52:11;;;;;;;3.10;2.70;;;;;;;;;;5016392;28;20205;-43
2023/09/04 12:54:42;;;;;;;5.18;2.63;;;;;;;;;;5019575;28;20203;-40
2023/09/04 12:57:21;;;;;;;4.15;2.45;;;;;;;;;;5035348;28;20219;-43
2023/09/04 12:59:53;;;;;;;2.47;2.28;;;;;;;;;;5042941;23;20231;-43
2023/09/04 13:02:22;;;;;;;2.70;2.50;;;;;;;;;;5038382;28;20218;-43
2023/09/04 13:04:56;;;;;;;2.83;2.60;;;;;;;;;;5050257;28;20208;-45
2023/09/04 13:07:24;;;;;;;2.60;2.40;;;;;;;;;;5052411;28;20210;-40
2023/09/04 13:09:54;;;;;;;2.92;2.70;;;;;;;;;;5046590;28;20215;-44
2023/09/04 13:12:24;;;;;;;3.13;2.83;;;;;;;;;;5055020;28;20227;-43
2023/09/04 13:15:01;;;;;;;2.78;2.58;;;;;;;;;;5045627;28;20228;-41
2023/09/04 13:17:41;;;;;;;4.05;2.38;;;;;;;;;;5047250;28;20204;-45
2023/09/04 13:20:10;;;;;;;2.78;2.50;;;;;;;;;;5047899;28;20246;-40
2023/09/04 13:22:39;;;;;;;2.72;2.35;;;;;;;;;;5044377;28;20206;-42
2023/09/04 13:25:13;;;;;;;2.85;2.30;;;;;;;;;;5045909;28;20212;-43
2023/09/04 13:27:42;;;;;;;3.15;2.95;;;;;;;;;;5033627;28;20213;-45
2023/09/04 13:30:19;;;;;;;2.40;2.30;;;;;;;;;;5034092;28;20254;-43
2023/09/04 13:32:50;;;;;;;2.85;2.45;;;;;;;;;;5041623;28;20304;-43
2023/09/04 13:35:26;;;;;;;2.55;2.35;;;;;;;;;;5042551;28;20205;-44
2023/09/04 13:37:57;;;;;;;2.60;2.40;;;;;;;;;;5034030;28;20231;-40
2023/09/04 13:40:35;;;;;;;3.35;2.58;;;;;;;;;;5041695;28;20302;-41
2023/09/04 13:43:05;;;;;;;2.78;2.58;;;;;;;;;;5034507;28;20207;-42
2023/09/04 13:45:41;;;;;;;2.58;2.33;;;;;;;;;;5045565;28;20273;-44
2023/09/04 13:48:27;;;;;;;2.40;2.20;;;;;;;;;;5038518;28;20211;-44
2023/09/04 13:50:58;;;;;;;2.67;2.47;;;;;;;;;;5047816;28;20219;-42
2023/09/04 13:53:30;;;;;;;4.20;2.72;;;;;;;;;;5046086;28;20229;-44
2023/09/04 13:56:03;;;;;;;3.15;2.55;;;;;;;;;;5045877;28;20235;-42
2023/09/04 14:01:42;;;;;;;2.35;2.15;;;;;;;;;;5009714;28;20219;-43
2023/09/04 14:04:13;;;;;;;2.58;2.38;;;;;;;;;;5049594;28;20192;-44
2023/09/04 14:06:49;;;;;;;2.70;2.50;;;;;;;;;;5046364;28;20213;-42
2023/09/04 14:09:21;;;;;;;4.90;2.70;;;;;;;;;;5049061;28;20231;-44
2023/09/04 14:11:50;;;;;;;2.40;2.20;;;;;;;;;;5042486;28;20202;-45
2023/09/04 14:14:23;;;;;;;2.70;2.50;;;;;;;;;;5045449;28;20230;-42
2023/09/04 14:16:59;;;;;;;2.97;2.78;;;;;;;;;;5034474;28;20267;-43
2023/09/04 14:19:40;;;;;;;3.78;2.50;;;;;;;;;;5041184;28;20232;-41
2023/09/04 14:22:12;;;;;;;3.20;2.40;;;;;;;;;;5043578;28;20215;-44
2023/09/04 14:24:54;;;;;;;2.80;2.60;;;;;;;;;;5034227;28;20211;-41
2023/09/04 14:27:31;;;;;;;3.33;2.58;;;;;;;;;;5039115;28;20219;-44
2023/09/04 14:29:59;;;;;;;4.32;2.65;;;;;;;;;;5045875;28;20224;-41
2023/09/04 14:32:39;;;;;;;2.50;2.30;;;;;;;;;;5035927;28;20308;-42
2023/09/04 14:35:19;;;;;;;2.80;2.30;;;;;;;;;;5033419;28;20635;-43
2023/09/04 14:37:50;;;;;;;2.53;2.33;;;;;;;;;;5038661;28;20201;-42
2023/09/04 14:40:22;;;;;;;5.18;2.00;;;;;;;;;;5054051;28;20230;-44
2023/09/04 14:43:01;;;;;;;2.63;2.42;;;;;;;;;;5050248;28;20212;-43
2023/09/04 14:45:34;;;;;;;5.22;2.63;;;;;;;;;;5041680;28;20673;-40
2023/09/04 14:48:09;;;;;;;2.40;2.20;;;;;;;;;;5041436;28;20197;-45
2023/09/04 14:50:43;;;;;;;2.72;2.53;;;;;;;;;;5040966;28;20224;-44
2023/09/04 14:53:12;;;;;;;3.25;2.22;;;;;;;;;;5052737;28;20316;-45
2023/09/04 14:58:44;;;;;;;3.03;2.60;;;;;;;;;;5040073;28;20338;-41
2023/09/04 15:01:19;;;;;;;3.88;2.55;;;;;;;;;;5041758;28;20203;-43
2023/09/04 15:03:54;;;;;;;2.70;2.50;;;;;;;;;;5036005;28;20229;-43
2023/09/04 15:06:34;;;;;;;2.20;2.10;;;;;;;;;;5043978;28;20204;-45
2023/09/04 15:09:11;;;;;;;2.42;2.22;;;;;;;;;;5048178;28;20248;-42
2023/09/04 15:11:44;;;;;;;2.60;2.30;;;;;;;;;;5042005;28;20205;-41
2023/09/04 15:14:24;;;;;;;3.17;2.65;;;;;;;;;;5032763;28;20233;-43
2023/09/04 15:17:02;;;;;;;2.75;2.40;;;;;;;;;;5038397;28;20223;-45
2023/09/04 15:24:37;;;;;;;2.80;2.17;;;;;;;;;;4933276;28;20834;-39
2023/09/04 15:27:04;;;;;;;2.90;2.60;;;;;;;;;;4951727;29;20219;-39
2023/09/04 15:29:32;;;;;;;2.88;2.58;;;;;;;;;;4943306;28;20229;-39
2023/09/04 15:31:59;;;;;;;2.53;2.33;;;;;;;;;;4950027;29;20218;-38
2023/09/04 15:34:26;;;;;;;4.18;3.65;;;;;;;;;;4954362;29;20223;-37
2023/09/04 15:42:06;;;;;;;3.67;2.60;;;;;;;;;;4949797;28;20226;-33